Time;durP1;ratioP1;P1;durP2;ratioP2;P2;SDS_P1;SDS_P2;PMS_P1;PMS_P2;Temp;Humidity;BMP_temperature;BMP_pressure;BME280_temperature;BME280_humidity;BME280_pressure;Samples;Min_cycle;Max_cycle;Signal;HPM_P1;HPM_P2
2021/04/17 00:01:00;;;;;;;36.20;22.10;;;;;;;7.73;69.98;100247.25;3627264;39;20298;-75
2021/04/17 00:03:27;;;;;;;33.55;21.30;;;;;;;7.74;70.01;100244.59;3627181;39;20041;-76
2021/04/17 00:05:53;;;;;;;35.47;21.33;;;;;;;7.74;69.89;100238.53;3626981;39;20027;-75
2021/04/17 00:08:20;;;;;;;36.42;22.10;;;;;;;7.75;69.88;100240.25;3627724;39;20039;-75
2021/04/17 00:10:50;;;;;;;42.40;22.75;;;;;;;7.72;69.92;100243.78;3627065;39;20042;-76
2021/04/17 00:13:18;;;;;;;41.58;24.98;;;;;;;7.73;69.67;100236.81;3626332;39;20042;-76
2021/04/17 00:15:44;;;;;;;42.83;24.17;;;;;;;7.74;69.82;100236.78;3626981;39;20435;-75
2021/04/17 00:18:12;;;;;;;47.53;25.88;;;;;;;7.77;69.67;100241.06;3626912;39;20031;-76
2021/04/17 00:20:38;;;;;;;49.70;27.55;;;;;;;7.79;69.56;100234.03;3627073;39;20058;-74
2021/04/17 00:23:04;;;;;;;47.72;26.48;;;;;;;7.73;69.68;100237.69;3627287;39;20027;-74
2021/04/17 00:25:31;;;;;;;43.20;26.42;;;;;;;7.75;69.58;100230.66;3627156;39;20037;-76
2021/04/17 00:27:58;;;;;;;48.55;26.42;;;;;;;7.76;69.65;100236.72;3628013;39;20061;-75
2021/04/17 00:30:25;;;;;;;51.70;28.88;;;;;;;7.73;69.83;100231.59;3627446;39;20043;-76
2021/04/17 00:32:52;;;;;;;61.88;33.08;;;;;;;7.71;69.77;100236.88;3627958;39;20031;-76
2021/04/17 00:35:19;;;;;;;63.17;35.47;;;;;;;7.64;70.00;100232.69;3627536;39;20172;-77
2021/04/17 00:37:46;;;;;;;53.85;31.38;;;;;;;7.67;69.87;100231.75;3630356;39;20031;-76
2021/04/17 00:40:14;;;;;;;54.85;29.65;;;;;;;7.62;70.08;100232.72;3630776;39;20034;-77
2021/04/17 00:42:40;;;;;;;60.97;32.75;;;;;;;7.63;70.15;100236.19;3627843;39;20087;-76
2021/04/17 00:45:11;;;;;;;53.30;32.20;;;;;;;7.56;70.11;100232.91;3627025;39;20100;-77
2021/04/17 00:47:39;;;;;;;52.20;29.35;;;;;;;7.54;70.00;100237.31;3627034;39;20267;-77
2021/04/17 00:50:19;;;;;;;53.92;30.88;;;;;;;7.53;70.34;100234.75;3647108;39;20406;-78
2021/04/17 00:53:11;;;;;;;54.78;31.33;;;;;;;7.46;70.54;100236.63;3648372;39;20627;-77
2021/04/17 00:55:54;;;;;;;49.63;27.92;;;;;;;7.54;70.15;100237.31;3622259;39;20437;-76
2021/04/17 00:58:21;;;;;;;53.00;28.67;;;;;;;7.53;70.15;100240.81;3617067;39;20044;-78
2021/04/17 01:00:47;;;;;;;57.78;28.77;;;;;;;7.52;70.42;100241.72;3616878;39;20044;-77
2021/04/17 01:03:22;;;;;;;49.40;27.23;;;;;;;7.53;70.41;100235.59;3617148;39;20035;-80
2021/04/17 01:05:53;;;;;;;40.88;24.13;;;;;;;7.51;70.20;100236.53;3616806;39;20031;-78
2021/04/17 01:08:27;;;;;;;47.10;25.85;;;;;;;7.43;70.18;100238.47;3616807;39;20071;-76
2021/04/17 01:10:57;;;;;;;47.05;26.63;;;;;;;7.39;70.51;100240.31;3616821;39;20028;-78
2021/04/17 01:13:24;;;;;;;50.22;27.20;;;;;;;7.36;70.71;100240.38;3616541;39;20038;-81
2021/04/17 01:16:05;;;;;;;52.55;27.52;;;;;;;7.31;70.79;100234.44;3627412;39;20421;-80
2021/04/17 01:18:32;;;;;;;48.60;27.85;;;;;;;7.33;70.67;100237.84;3627408;39;20479;-79
2021/04/17 01:21:00;;;;;;;49.85;27.58;;;;;;;7.40;70.53;100235.94;3626827;39;20075;-79
2021/04/17 01:23:33;;;;;;;46.67;26.10;;;;;;;7.39;70.46;100237.69;3626815;39;20027;-80
2021/04/17 01:26:02;;;;;;;47.28;25.17;;;;;;;7.35;70.55;100233.47;3626974;39;20027;-79
2021/04/17 01:28:33;;;;;;;45.15;25.15;;;;;;;7.32;70.61;100233.53;3627082;39;20038;-78
2021/04/17 01:31:01;;;;;;;46.42;25.55;;;;;;;7.33;70.45;100235.25;3626956;39;20280;-78
2021/04/17 01:33:31;;;;;;;45.22;24.42;;;;;;;7.34;70.63;100230.00;3626873;39;20035;-80
2021/04/17 01:35:58;;;;;;;47.55;25.67;;;;;;;7.40;70.50;100234.19;3626500;39;20054;-78
2021/04/17 01:38:26;;;;;;;49.90;26.30;;;;;;;7.49;70.13;100233.94;3626958;39;20039;-77
2021/04/17 01:40:56;;;;;;;42.97;23.02;;;;;;;7.50;70.33;100235.69;3627592;39;20038;-77
2021/04/17 01:43:26;;;;;;;47.83;25.92;;;;;;;7.51;70.36;100229.56;3626923;39;20033;-77
2021/04/17 01:45:54;;;;;;;44.63;24.52;;;;;;;7.51;70.11;100226.97;3627689;39;20057;-78
2021/04/17 01:48:22;;;;;;;44.97;25.20;;;;;;;7.54;70.21;100229.47;3626833;39;20087;-77
2021/04/17 01:50:51;;;;;;;44.92;23.85;;;;;;;7.57;70.00;100233.75;3626598;39;20116;-77
2021/04/17 01:53:22;;;;;;;39.20;23.50;;;;;;;7.55;70.25;100232.94;3626802;39;20034;-79
2021/04/17 01:55:50;;;;;;;42.80;24.42;;;;;;;7.52;70.20;100236.50;3627557;39;20031;-77
2021/04/17 01:58:25;;;;;;;39.47;22.27;;;;;;;7.49;70.40;100240.91;3627058;39;20031;-80
2021/04/17 02:00:52;;;;;;;42.53;24.58;;;;;;;7.56;70.01;100242.47;3627516;39;20063;-76
2021/04/17 02:03:20;;;;;;;43.35;23.92;;;;;;;7.58;69.77;100238.94;3626704;39;20035;-79
2021/04/17 02:05:48;;;;;;;42.15;24.38;;;;;;;7.61;69.88;100231.03;3627351;39;20387;-76
2021/04/17 02:08:15;;;;;;;43.40;24.95;;;;;;;7.57;69.96;100233.75;3626543;39;20063;-77
2021/04/17 02:10:42;;;;;;;45.33;25.48;;;;;;;7.53;70.17;100234.75;3627624;39;20273;-79
2021/04/17 02:13:09;;;;;;;45.30;25.17;;;;;;;7.54;70.12;100226.88;3626585;39;20107;-78
2021/04/17 02:15:37;;;;;;;46.38;25.00;;;;;;;7.56;69.85;100232.91;3626384;39;20132;-76
2021/04/17 02:18:11;;;;;;;44.28;24.80;;;;;;;7.50;70.21;100230.47;3626691;39;20135;-77
2021/04/17 02:20:41;;;;;;;44.95;25.02;;;;;;;7.47;70.21;100227.91;3627403;39;20057;-79
2021/04/17 02:23:08;;;;;;;44.05;24.38;;;;;;;7.45;70.32;100227.09;3626679;39;20035;-77
2021/04/17 02:25:34;;;;;;;46.00;26.08;;;;;;;7.43;70.18;100228.03;3625028;39;20042;-78
2021/04/17 02:28:01;;;;;;;47.92;25.17;;;;;;;7.40;70.41;100226.38;3619676;39;20390;-79
2021/04/17 02:30:40;;;;;;;48.38;24.60;;;;;;;7.43;70.18;100223.66;3607202;39;20419;-78
2021/04/17 02:33:06;;;;;;;47.90;25.88;;;;;;;7.45;70.17;100227.09;3606483;39;20038;-76
2021/04/17 02:35:45;;;;;;;46.97;25.73;;;;;;;7.42;70.18;100227.19;3648207;31;20410;-81
2021/04/17 02:38:12;;;;;;;52.17;26.13;;;;;;;7.46;70.12;100220.97;3647611;39;20034;-79
2021/04/17 02:40:38;;;;;;;56.67;29.05;;;;;;;7.51;69.99;100226.97;3648463;39;20022;-79
2021/04/17 02:43:04;;;;;;;52.67;28.52;;;;;;;7.54;70.05;100221.66;3647718;39;20395;-79
2021/04/17 02:45:31;;;;;;;49.92;26.83;;;;;;;7.48;69.92;100216.56;3648338;39;20086;-80
2021/04/17 02:47:58;;;;;;;47.40;27.13;;;;;;;7.48;70.18;100211.34;3647305;39;20319;-80
2021/04/17 02:50:24;;;;;;;48.63;28.00;;;;;;;7.53;70.02;100211.25;3648089;39;20038;-78
2021/04/17 02:52:53;;;;;;;49.13;26.38;;;;;;;7.48;70.19;100202.69;3647412;39;20026;-79
2021/04/17 02:55:20;;;;;;;45.40;25.77;;;;;;;7.52;70.31;100213.00;3648207;39;20042;-78
2021/04/17 02:57:47;;;;;;;55.80;27.73;;;;;;;7.39;70.50;100206.41;3647591;39;20031;-79
2021/04/17 03:00:16;;;;;;;52.00;26.63;;;;;;;7.26;70.67;100216.28;3648205;39;20056;-79
2021/04/17 03:02:42;;;;;;;52.47;27.50;;;;;;;7.26;70.77;100218.03;3647425;39;20066;-80
2021/04/17 03:05:10;;;;;;;51.65;27.80;;;;;;;7.28;70.86;100224.06;3648181;39;20347;-79
2021/04/17 03:07:37;;;;;;;53.30;29.50;;;;;;;7.28;70.65;100224.06;3647237;39;20355;-78
2021/04/17 03:10:06;;;;;;;46.88;26.70;;;;;;;7.30;70.76;100222.28;3648053;39;20137;-79
2021/04/17 03:12:33;;;;;;;44.03;25.70;;;;;;;7.30;70.81;100217.94;3647250;39;20026;-80
2021/04/17 03:15:12;;;;;;;44.80;24.77;;;;;;;7.33;70.57;100217.00;3627564;31;20719;-80
2021/04/17 03:17:53;;;;;;;44.33;23.48;;;;;;;7.35;70.35;100215.19;3627591;39;20656;-78
2021/04/17 03:20:31;;;;;;;50.60;26.17;;;;;;;7.36;70.26;100216.91;3627616;39;20424;-79
2021/04/17 03:23:09;;;;;;;41.50;23.23;;;;;;;7.42;70.39;100221.97;3627593;39;20401;-76
2021/04/17 03:25:47;;;;;;;42.35;22.70;;;;;;;7.39;70.23;100227.25;3617392;39;20662;-77
2021/04/17 03:28:26;;;;;;;44.58;25.67;;;;;;;7.34;70.53;100226.53;3607059;39;20667;-79
2021/04/17 03:31:04;;;;;;;45.13;24.75;;;;;;;7.27;70.87;100223.19;3607143;39;21005;-77
2021/04/17 03:33:42;;;;;;;45.90;24.90;;;;;;;7.21;70.89;100219.91;3607178;39;20653;-80
2021/04/17 03:36:22;;;;;;;54.90;26.17;;;;;;;7.18;71.01;100218.22;3627614;39;20416;-78
2021/04/17 03:38:48;;;;;;;45.63;25.30;;;;;;;7.20;71.05;100220.78;3627112;39;20035;-79
2021/04/17 03:41:14;;;;;;;47.80;24.25;;;;;;;7.20;70.92;100213.81;3626768;39;20043;-76
2021/04/17 03:43:41;;;;;;;50.47;25.30;;;;;;;7.21;70.64;100227.72;3626978;39;20039;-76
2021/04/17 03:46:07;;;;;;;42.92;23.63;;;;;;;7.20;70.80;100226.88;3627747;39;20039;-76
2021/04/17 03:48:33;;;;;;;46.70;24.98;;;;;;;7.22;70.75;100225.06;3627190;39;20047;-78
2021/04/17 03:51:00;;;;;;;48.45;25.55;;;;;;;7.26;70.68;100233.66;3628114;39;20027;-77
2021/04/17 03:53:27;;;;;;;44.00;23.75;;;;;;;7.27;70.70;100228.41;3627520;39;20035;-77
2021/04/17 03:55:53;;;;;;;41.30;23.75;;;;;;;7.31;70.58;100229.22;3627616;39;20115;-76
2021/04/17 03:58:19;;;;;;;38.22;20.67;;;;;;;7.33;70.48;100232.63;3629131;39;20035;-76
2021/04/17 04:00:45;;;;;;;37.42;22.17;;;;;;;7.38;70.54;100238.59;3638177;39;20068;-76
2021/04/17 04:03:12;;;;;;;35.42;20.08;;;;;;;7.40;70.56;100235.94;3632460;39;20027;-77
2021/04/17 04:05:38;;;;;;;34.88;20.48;;;;;;;7.40;70.51;100234.19;3619339;39;20388;-74
2021/04/17 04:08:05;;;;;;;30.08;18.40;;;;;;;7.40;70.49;100231.56;3620217;39;20043;-76
2021/04/17 04:10:33;;;;;;;33.72;19.15;;;;;;;7.39;70.59;100236.84;3618468;39;20039;-77
2021/04/17 04:12:59;;;;;;;36.50;19.05;;;;;;;7.41;70.62;100238.50;3619718;39;20042;-76
2021/04/17 04:15:25;;;;;;;32.65;19.55;;;;;;;7.43;70.71;100241.94;3619781;39;20035;-77
2021/04/17 04:18:05;;;;;;;31.00;18.60;;;;;;;7.43;70.38;100239.31;3637139;39;20655;-76
2021/04/17 04:20:31;;;;;;;31.98;17.60;;;;;;;7.46;70.43;100248.81;3636179;39;20035;-77
2021/04/17 04:22:59;;;;;;;35.17;19.45;;;;;;;7.49;70.39;100241.75;3636722;39;20034;-77
2021/04/17 04:25:25;;;;;;;29.10;18.40;;;;;;;7.53;70.15;100248.63;3636263;39;20031;-78
2021/04/17 04:27:52;;;;;;;30.92;19.13;;;;;;;7.57;70.01;100247.66;3637421;39;20115;-77
2021/04/17 04:30:18;;;;;;;38.33;20.02;;;;;;;7.57;70.15;100242.44;3636316;39;20280;-75
2021/04/17 04:32:45;;;;;;;37.97;19.92;;;;;;;7.51;70.11;100245.22;3636595;39;20303;-75
2021/04/17 04:35:13;;;;;;;34.45;20.00;;;;;;;7.52;70.17;100244.31;3633654;39;20022;-75
2021/04/17 04:37:39;;;;;;;36.95;21.60;;;;;;;7.57;70.13;100250.25;3636828;39;20038;-75
2021/04/17 04:40:07;;;;;;;34.28;20.58;;;;;;;7.59;70.20;100252.84;3636430;39;20387;-75
2021/04/17 04:42:33;;;;;;;32.60;19.42;;;;;;;7.62;69.88;100244.91;3637207;39;20340;-76
2021/04/17 04:45:00;;;;;;;36.28;20.30;;;;;;;7.66;70.04;100251.75;3636304;39;20122;-76
2021/04/17 04:47:26;;;;;;;37.65;21.35;;;;;;;7.71;70.01;100254.28;3636154;39;20026;-77
2021/04/17 04:49:53;;;;;;;40.53;21.80;;;;;;;7.71;69.84;100262.09;3636569;39;20291;-77
2021/04/17 04:52:20;;;;;;;40.10;20.83;;;;;;;7.70;69.93;100256.00;3636889;39;20031;-77
2021/04/17 04:54:46;;;;;;;38.78;21.63;;;;;;;7.67;70.09;100263.06;3636165;39;20062;-76
2021/04/17 04:57:13;;;;;;;41.03;23.60;;;;;;;7.70;70.17;100257.75;3637041;39;20110;-76
2021/04/17 04:59:39;;;;;;;47.97;25.15;;;;;;;7.73;70.05;100262.91;3636316;39;20092;-77
2021/04/17 05:02:05;;;;;;;46.15;24.13;;;;;;;7.75;69.92;100268.94;3635434;39;20041;-78
2021/04/17 05:04:32;;;;;;;45.97;24.65;;;;;;;7.74;70.14;100260.25;3634782;39;20122;-77
2021/04/17 05:07:11;;;;;;;38.58;24.58;;;;;;;7.76;70.19;100252.41;3617061;39;20734;-78
2021/04/17 05:09:49;;;;;;;43.17;22.88;;;;;;;7.71;70.38;100262.97;3616613;39;20789;-77
2021/04/17 05:12:37;;;;;;;34.45;20.80;;;;;;;7.76;70.57;100262.84;3621770;39;20452;-79
2021/04/17 05:15:04;;;;;;;39.15;22.17;;;;;;;7.80;70.23;100251.41;3612869;39;20080;-78
2021/04/17 05:17:30;;;;;;;37.40;22.13;;;;;;;7.87;70.08;100260.78;3611656;39;20278;-78
2021/04/17 05:20:09;;;;;;;32.78;20.30;;;;;;;7.91;70.16;100262.41;3595033;39;20689;-78
2021/04/17 05:22:36;;;;;;;38.63;22.55;;;;;;;7.96;69.98;100263.16;3595765;39;20055;-77
2021/04/17 05:25:03;;;;;;;35.85;20.95;;;;;;;8.05;69.87;100265.50;3595239;39;20133;-78
2021/04/17 05:27:29;;;;;;;32.58;20.33;;;;;;;8.13;69.56;100260.94;3596922;39;20437;-77
2021/04/17 05:29:55;;;;;;;39.22;24.38;;;;;;;8.19;69.63;100268.59;3595254;39;20033;-78
2021/04/17 05:32:22;;;;;;;38.25;21.88;;;;;;;8.17;69.59;100265.16;3597847;39;20320;-78
2021/04/17 05:35:01;;;;;;;39.90;22.75;;;;;;;8.17;69.64;100265.16;3615475;39;20402;-79
2021/04/17 05:37:27;;;;;;;42.88;23.17;;;;;;;8.16;69.80;100263.47;3595738;39;20032;-77
2021/04/17 05:39:53;;;;;;;38.17;22.40;;;;;;;8.14;69.78;100262.66;3597698;39;20072;-79
2021/04/17 05:42:20;;;;;;;46.50;22.67;;;;;;;8.08;70.16;100268.00;3597052;39;20032;-78
2021/04/17 05:44:46;;;;;;;40.97;22.02;;;;;;;8.03;70.13;100267.28;3598533;39;20052;-80
2021/04/17 05:47:25;;;;;;;45.00;24.13;;;;;;;8.05;70.01;100270.72;3607421;39;20402;-78
2021/04/17 05:50:04;;;;;;;44.67;25.48;;;;;;;8.09;70.31;100264.50;3613898;39;20413;-78
2021/04/17 05:52:30;;;;;;;55.15;31.05;;;;;;;8.13;69.86;100268.78;3604505;39;20047;-79
2021/04/17 05:54:56;;;;;;;47.63;25.92;;;;;;;8.18;69.86;100272.09;3605303;39;20068;-80
2021/04/17 05:57:36;;;;;;;44.92;26.45;;;;;;;8.30;69.58;100272.63;3622035;39;20412;-81
2021/04/17 06:00:05;;;;;;;42.55;23.27;;;;;;;8.33;69.44;100259.47;3614282;39;20071;-81
2021/04/17 06:02:31;;;;;;;43.10;27.10;;;;;;;8.40;69.33;100276.75;3605792;39;20112;-77
2021/04/17 06:05:10;;;;;;;47.83;28.83;;;;;;;8.45;69.23;100274.84;3615755;39;20411;-79
2021/04/17 06:07:49;;;;;;;47.45;26.52;;;;;;;8.56;69.22;100267.56;3634081;39;20431;-78
2021/04/17 06:10:16;;;;;;;52.13;29.83;;;;;;;8.71;68.68;100269.69;3626673;39;20016;-77
2021/04/17 06:12:54;;;;;;;49.63;26.90;;;;;;;8.78;68.61;100268.63;3621245;39;20798;-76
2021/04/17 06:15:32;;;;;;;47.50;27.02;;;;;;;8.84;68.65;100268.44;3612512;39;20395;-77
2021/04/17 06:18:10;;;;;;;41.72;23.63;;;;;;;8.94;68.34;100263.75;3606929;39;20402;-77
2021/04/17 06:20:49;;;;;;;42.97;25.55;;;;;;;8.99;68.26;100266.25;3611389;31;20401;-77
2021/04/17 06:23:27;;;;;;;43.28;25.58;;;;;;;9.06;68.10;100276.44;3623569;39;20412;-78
2021/04/17 06:25:53;;;;;;;42.10;24.40;;;;;;;9.05;68.23;100277.34;3619928;39;20038;-79
2021/04/17 06:28:20;;;;;;;39.40;23.92;;;;;;;9.08;68.19;100279.00;3617147;39;20057;-78
2021/04/17 06:30:46;;;;;;;49.63;24.83;;;;;;;9.11;68.08;100285.00;3620415;39;20386;-78
2021/04/17 06:33:25;;;;;;;40.70;22.33;;;;;;;9.18;68.02;100287.44;3603580;39;20411;-77
2021/04/17 06:36:06;;;;;;;37.95;21.55;;;;;;;9.18;68.10;100290.91;3590307;39;20668;-78
2021/04/17 06:38:32;;;;;;;35.03;20.83;;;;;;;9.21;68.04;100292.56;3584487;40;20256;-75
2021/04/17 06:41:11;;;;;;;34.60;19.75;;;;;;;9.14;68.12;100292.75;3636897;39;20522;-77
2021/04/17 06:43:50;;;;;;;42.63;21.65;;;;;;;9.13;68.05;100284.94;3620264;31;20397;-76
2021/04/17 06:46:19;;;;;;;39.90;22.02;;;;;;;9.21;67.91;100282.97;3614663;39;20297;-75
2021/04/17 06:48:46;;;;;;;39.30;21.55;;;;;;;9.32;67.37;100278.22;3612099;39;20035;-75
2021/04/17 06:51:14;;;;;;;45.60;23.63;;;;;;;9.36;67.52;100276.34;3612683;39;20150;-75
2021/04/17 06:53:42;;;;;;;45.88;23.83;;;;;;;9.30;67.68;100279.19;3613408;39;20031;-75
2021/04/17 06:56:09;;;;;;;37.13;22.90;;;;;;;9.23;67.83;100285.53;3612538;39;20040;-74
2021/04/17 06:58:37;;;;;;;42.95;23.92;;;;;;;9.19;67.72;100284.78;3613219;39;20035;-74
2021/04/17 07:01:05;;;;;;;45.33;25.63;;;;;;;9.22;67.86;100279.44;3614551;39;20042;-75
2021/04/17 07:03:31;;;;;;;55.97;30.10;;;;;;;9.24;67.82;100287.25;3614520;39;20087;-73
2021/04/17 07:05:58;;;;;;;45.42;24.02;;;;;;;9.27;67.69;100281.91;3612038;39;20036;-73
2021/04/17 07:08:24;;;;;;;49.60;26.77;;;;;;;9.27;67.67;100285.38;3614382;39;20044;-74
2021/04/17 07:11:05;;;;;;;50.35;27.48;;;;;;;9.22;67.87;100289.91;3639747;39;20133;-74
2021/04/17 07:13:31;;;;;;;62.03;29.67;;;;;;;9.21;67.98;100298.66;3626681;39;20071;-76
2021/04/17 07:16:06;;;;;;;65.68;32.92;;;;;;;9.26;67.95;100293.28;3633552;39;20031;-74
2021/04/17 07:18:34;;;;;;;43.47;24.27;;;;;;;9.32;67.68;100296.53;3639635;39;20023;-74
2021/04/17 07:21:30;;;;;;;54.92;28.95;;;;;;;9.39;67.81;100295.44;3629571;39;20042;-74
2021/04/17 07:23:56;;;;;;;49.67;25.10;;;;;;;9.48;67.21;100297.75;3626865;39;20438;-74
2021/04/17 07:26:25;;;;;;;49.45;23.95;;;;;;;9.53;67.17;100299.34;3624102;39;20047;-75
2021/04/17 07:29:14;;;;;;;42.05;21.83;;;;;;;9.62;67.10;100293.84;3624279;39;20108;-76
2021/04/17 07:31:49;;;;;;;37.42;22.67;;;;;;;9.63;66.49;100296.41;3622068;39;20022;-74
2021/04/17 07:34:18;;;;;;;40.80;23.30;;;;;;;9.77;66.64;100302.00;3623542;39;20035;-73
2021/04/17 07:36:59;;;;;;;73.30;34.78;;;;;;;9.83;66.54;100310.56;3546493;40;20413;-77
2021/04/17 07:39:37;;;;;;;54.20;28.23;;;;;;;9.76;66.62;100304.66;3544976;40;20038;-74
2021/04/17 07:42:15;;;;;;;51.08;27.52;;;;;;;9.73;66.67;100307.41;3603308;39;20396;-72
2021/04/17 07:44:53;;;;;;;52.40;27.42;;;;;;;9.79;66.59;100312.44;3603401;39;20406;-73
2021/04/17 07:47:33;;;;;;;53.08;29.48;;;;;;;9.80;66.47;100313.31;3597533;39;20443;-75
2021/04/17 07:50:05;;;;;;;60.95;33.67;;;;;;;9.77;66.69;100319.47;3581750;40;20402;-73
2021/04/17 07:52:32;;;;;;;60.33;31.10;;;;;;;9.84;66.53;100310.50;3582921;40;20037;-74
2021/04/17 07:55:07;;;;;;;44.15;25.45;;;;;;;9.88;66.27;100313.88;3581958;40;20063;-76
2021/04/17 07:57:35;;;;;;;52.17;26.25;;;;;;;9.89;66.08;100316.44;3581833;40;20041;-77
2021/04/17 08:00:03;;;;;;;50.45;29.60;;;;;;;9.91;66.45;100317.25;3580955;40;20040;-76
2021/04/17 08:02:32;;;;;;;56.65;30.55;;;;;;;9.98;66.23;100316.13;3585789;40;20117;-76
2021/04/17 08:04:59;;;;;;;45.78;27.33;;;;;;;10.03;66.29;100316.84;3586087;39;20440;-76
2021/04/17 08:07:26;;;;;;;48.78;27.17;;;;;;;10.16;65.96;100319.00;3581480;40;20087;-75
2021/04/17 08:09:54;;;;;;;40.08;24.17;;;;;;;10.28;65.63;100322.09;3580798;40;20033;-74
2021/04/17 08:12:21;;;;;;;42.60;25.55;;;;;;;10.39;65.24;100322.53;3584330;40;20033;-75
2021/04/17 08:14:51;;;;;;;43.63;24.63;;;;;;;10.54;65.18;100317.66;3585114;40;20036;-74
2021/04/17 08:17:18;;;;;;;47.63;25.08;;;;;;;10.56;65.16;100321.91;3579406;40;20395;-74
2021/04/17 08:19:45;;;;;;;39.42;23.58;;;;;;;10.63;65.06;100328.66;3586507;39;20069;-74
2021/04/17 08:22:12;;;;;;;47.88;25.23;;;;;;;10.83;64.51;100334.94;3583541;40;20114;-74
2021/04/17 08:24:39;;;;;;;48.30;25.67;;;;;;;11.00;64.19;100327.25;3583125;40;20044;-74
2021/04/17 08:27:07;;;;;;;42.33;25.05;;;;;;;11.12;64.02;100331.19;3582858;40;20078;-74
2021/04/17 08:29:54;;;;;;;52.63;32.60;;;;;;;10.75;64.53;100327.34;3615431;39;20435;-74
2021/04/17 08:32:30;;;;;;;44.15;24.98;;;;;;;11.29;63.32;100331.38;3602352;39;20150;-75
2021/04/17 08:35:18;;;;;;;40.03;24.08;;;;;;;11.44;62.96;100332.50;3604084;39;20040;-75
2021/04/17 08:38:08;;;;;;;39.60;22.23;;;;;;;11.43;63.06;100331.66;3603384;39;20040;-73
2021/04/17 08:40:49;;;;;;;36.05;19.55;;;;;;;11.32;63.31;100333.00;3602632;39;20040;-75
2021/04/17 08:43:31;;;;;;;40.47;23.30;;;;;;;11.28;63.59;100338.38;3603882;39;20352;-74
2021/04/17 08:46:02;;;;;;;38.72;21.63;;;;;;;11.26;63.29;100334.97;3600532;39;20566;-75
2021/04/17 08:48:55;;;;;;;42.63;21.98;;;;;;;11.38;63.23;100335.38;3603219;39;20043;-75
2021/04/17 08:51:38;;;;;;;37.58;21.65;;;;;;;11.40;63.21;100333.53;3599705;39;20042;-74
2021/04/17 08:54:26;;;;;;;34.90;20.88;;;;;;;11.49;62.94;100336.66;3608221;39;20124;-76
2021/04/17 08:56:58;;;;;;;39.85;21.58;;;;;;;11.48;62.81;100336.72;3603226;39;20060;-75
2021/04/17 08:59:34;;;;;;;45.30;26.38;;;;;;;11.52;62.87;100339.16;3605069;39;20076;-75
2021/04/17 09:02:11;;;;;;;45.10;25.25;;;;;;;11.56;62.79;100334.63;3601663;39;20045;-75
2021/04/17 09:05:00;;;;;;;47.63;23.67;;;;;;;11.60;62.88;100333.59;3612612;39;20040;-76
2021/04/17 09:07:27;;;;;;;36.88;21.10;;;;;;;11.77;62.42;100330.28;3604015;39;20278;-74
2021/04/17 09:09:54;;;;;;;39.40;21.42;;;;;;;11.89;61.98;100330.66;3602399;39;20117;-74
2021/04/17 09:12:23;;;;;;;47.20;24.95;;;;;;;11.88;62.06;100328.94;3603118;39;20120;-75
2021/04/17 09:15:00;;;;;;;39.78;23.30;;;;;;;11.88;62.14;100328.94;3605045;39;20040;-75
2021/04/17 09:17:48;;;;;;;44.65;24.08;;;;;;;12.05;61.81;100330.81;3606088;39;20421;-75
2021/04/17 09:20:33;;;;;;;37.67;22.70;;;;;;;12.19;61.63;100327.59;3603753;39;20072;-75
2021/04/17 09:22:59;;;;;;;40.15;25.50;;;;;;;12.26;61.37;100328.19;3604760;39;20286;-75
2021/04/17 09:25:43;;;;;;;38.83;23.33;;;;;;;12.36;61.34;100333.00;3610655;39;20036;-75
2021/04/17 09:28:13;;;;;;;38.35;23.38;;;;;;;12.52;60.68;100331.38;3605515;39;20420;-74
2021/04/17 09:30:40;;;;;;;42.28;23.67;;;;;;;12.57;60.57;100325.91;3604723;39;20494;-74
2021/04/17 09:33:07;;;;;;;45.35;23.92;;;;;;;12.57;60.35;100332.94;3603868;39;20071;-75
2021/04/17 09:35:36;;;;;;;35.88;21.80;;;;;;;12.55;60.68;100334.81;3608892;39;20393;-74
2021/04/17 09:38:13;;;;;;;43.15;25.80;;;;;;;12.54;60.51;100327.84;3604958;39;20374;-74
2021/04/17 09:40:46;;;;;;;40.08;22.40;;;;;;;12.57;60.57;100341.69;3599830;39;20032;-75
2021/04/17 09:43:25;;;;;;;33.90;19.83;;;;;;;12.62;60.19;100338.84;3598649;39;20044;-74
2021/04/17 09:45:52;;;;;;;33.45;21.33;;;;;;;12.69;60.10;100337.63;3591769;39;20040;-74
2021/04/17 09:48:21;;;;;;;41.58;22.58;;;;;;;12.78;59.89;100347.75;3598733;39;20047;-75
2021/04/17 09:50:48;;;;;;;36.13;23.48;;;;;;;12.72;60.03;100342.78;3596607;39;20032;-75
2021/04/17 09:53:17;;;;;;;40.17;21.65;;;;;;;12.75;60.15;100335.59;3593754;39;20033;-75
2021/04/17 09:55:56;;;;;;;30.38;19.58;;;;;;;12.85;59.62;100345.69;3599721;39;20033;-75
2021/04/17 09:58:31;;;;;;;37.17;21.65;;;;;;;12.91;59.64;100341.00;3595350;39;20387;-75
2021/04/17 10:01:09;;;;;;;38.25;22.73;;;;;;;12.95;59.43;100342.56;3594897;39;20305;-75
2021/04/17 10:03:54;;;;;;;37.83;21.27;;;;;;;13.28;58.45;100342.78;3599298;39;20043;-75
2021/04/17 10:06:26;;;;;;;30.80;20.30;;;;;;;13.42;57.80;100336.84;3593557;39;20024;-75
2021/04/17 10:08:53;;;;;;;33.70;20.48;;;;;;;13.39;58.36;100342.28;3594411;39;20463;-74
2021/04/17 10:11:23;;;;;;;36.50;21.52;;;;;;;13.29;58.46;100333.94;3597896;39;20043;-75
2021/04/17 10:13:52;;;;;;;32.90;20.13;;;;;;;13.22;58.72;100343.06;3598885;39;20040;-75
2021/04/17 10:16:28;;;;;;;32.67;20.17;;;;;;;13.20;58.73;100337.03;3595265;39;20039;-74
2021/04/17 10:18:56;;;;;;;35.10;20.17;;;;;;;13.13;58.75;100344.34;3594512;39;20526;-73
2021/04/17 10:21:24;;;;;;;37.60;21.02;;;;;;;13.16;58.73;100342.50;3598159;39;20117;-75
2021/04/17 10:24:21;;;;;;;29.65;19.15;;;;;;;13.08;59.05;100341.06;3604380;39;20120;-75
2021/04/17 10:27:07;;;;;;;26.77;16.85;;;;;;;13.09;58.95;100347.16;3595816;39;20041;-75
2021/04/17 10:29:45;;;;;;;31.60;16.45;;;;;;;13.35;58.53;100344.22;3596829;39;20052;-75
2021/04/17 10:32:14;;;;;;;28.02;17.42;;;;;;;13.76;57.15;100345.75;3596100;39;20064;-75
2021/04/17 10:34:43;;;;;;;31.65;18.38;;;;;;;14.21;55.96;100340.75;3603745;39;20076;-75
2021/04/17 10:37:13;;;;;;;25.20;16.55;;;;;;;14.45;55.47;100348.34;3597484;39;20048;-75
2021/04/17 10:39:57;;;;;;;29.52;18.25;;;;;;;14.61;55.46;100343.97;3600193;39;20375;-75
2021/04/17 10:42:23;;;;;;;28.48;18.60;;;;;;;14.54;55.55;100345.22;3595902;39;20106;-74
2021/04/17 10:44:53;;;;;;;24.83;17.00;;;;;;;14.27;56.21;100340.44;3604526;39;20415;-74
2021/04/17 10:47:20;;;;;;;42.03;24.55;;;;;;;14.26;56.21;100354.56;3593091;39;20117;-75
2021/04/17 10:49:47;;;;;;;34.97;21.88;;;;;;;14.27;56.42;100348.34;3594466;39;20066;-75
2021/04/17 10:52:28;;;;;;;27.83;18.52;;;;;;;14.21;56.56;100345.19;3593738;39;20089;-75
2021/04/17 10:54:55;;;;;;;27.17;16.50;;;;;;;14.15;56.44;100356.88;3599542;39;20035;-75
2021/04/17 10:57:22;;;;;;;24.95;14.38;;;;;;;13.86;56.79;100357.50;3608015;39;20312;-76
2021/04/17 10:59:56;;;;;;;27.05;14.88;;;;;;;13.60;57.13;100353.53;3602029;39;20117;-75
2021/04/17 11:02:31;;;;;;;23.80;15.20;;;;;;;13.50;57.46;100365.44;3597095;39;20036;-75
2021/04/17 11:05:00;;;;;;;25.52;16.80;;;;;;;13.51;57.73;100359.25;3600365;39;21606;-75
2021/04/17 11:07:35;;;;;;;25.85;15.93;;;;;;;13.33;58.11;100368.91;3598699;39;20161;-75
2021/04/17 11:10:03;;;;;;;27.17;15.07;;;;;;;13.18;58.18;100369.63;3606631;39;20101;-74
2021/04/17 11:12:31;;;;;;;26.58;15.20;;;;;;;13.05;58.36;100371.94;3608500;39;20112;-74
2021/04/17 11:15:15;;;;;;;24.38;14.38;;;;;;;12.94;58.69;100364.56;3608846;39;20138;-75
2021/04/17 11:17:41;;;;;;;26.23;15.48;;;;;;;13.00;58.61;100366.88;3608276;39;20108;-74
2021/04/17 11:20:17;;;;;;;26.52;16.88;;;;;;;13.00;58.58;100368.66;3608045;39;20028;-74
2021/04/17 11:22:44;;;;;;;26.60;16.33;;;;;;;13.03;58.31;100360.63;3608874;39;20088;-74
2021/04/17 11:25:11;;;;;;;24.80;16.20;;;;;;;12.93;58.69;100368.09;3608724;39;20082;-74
2021/04/17 11:27:38;;;;;;;32.10;17.10;;;;;;;12.78;58.81;100374.06;3608803;39;20343;-75
2021/04/17 11:30:07;;;;;;;31.23;17.00;;;;;;;12.73;59.19;100370.78;3608736;39;20191;-76
2021/04/17 11:32:33;;;;;;;33.60;18.05;;;;;;;12.69;59.50;100379.72;3608665;39;20073;-75